logo
Search for airport 
image banner adimage banner adimage banner ad
image banner ad

SDC9 - Tocantinopolis

Located in Tocantinopolis, Brazil

ICAO - SDC9, IATA -

Data provided by Airmate  

General information

Coordinates: S6°20'2" W47°28'22"
Elevation is 790 feet MSL.
Magnetic variation is -21.197224323° East
View others Airports in Tocatins

Operational data

Special qualification required
Current time UTC:
Current local time:
Weather at : - ( 0 km )
METAR: KUNV 242053Z 34010G16KT 10SM SCT060 26/11 A2989
View NOTAMs / SUP AIP / TFR affecting this airport [VIEW]
Communications frequencies: [VIEW]

Runways:

RWY identifierQFULength (ft)Width (ft)SurfaceLDA (ft)
09360975ASPH
27360975ASPH

Airport contact information

Address: Tocantinopolis Brazil

Satellite view of SDC9